createdAt,value
2023-02-19T00:01:43.243Z,6.10
2023-02-19T00:04:18.991Z,7.95
2023-02-19T00:06:49.002Z,7.90
2023-02-19T00:09:19.590Z,6.82
2023-02-19T00:11:48.727Z,9.10
2023-02-19T00:14:21.289Z,7.22
2023-02-19T00:16:49.896Z,9.40
2023-02-19T00:19:21.049Z,6.18
2023-02-19T00:21:53.154Z,7.53
2023-02-19T00:24:22.169Z,5.50
2023-02-19T00:26:50.380Z,8.07
2023-02-19T00:29:23.050Z,6.72
2023-02-19T00:31:52.165Z,8.23
2023-02-19T00:34:20.418Z,6.60
2023-02-19T00:36:49.239Z,7.30
2023-02-19T00:39:18.804Z,5.53
2023-02-19T00:41:47.959Z,8.20
2023-02-19T00:44:16.436Z,6.28
2023-02-19T00:46:48.594Z,7.13
2023-02-19T00:49:21.628Z,5.88
2023-02-19T00:51:52.648Z,7.63
2023-02-19T00:54:23.042Z,6.47
2023-02-19T00:56:51.496Z,7.43
2023-02-19T00:59:19.742Z,5.95
2023-02-19T01:01:50.127Z,7.57
2023-02-19T01:04:19.602Z,6.35
2023-02-19T01:06:49.164Z,7.32
2023-02-19T01:09:17.497Z,6.00
2023-02-19T01:11:45.896Z,7.20
2023-02-19T01:14:13.963Z,5.68
2023-02-19T01:16:42.319Z,7.47
2023-02-19T01:19:10.441Z,6.55
2023-02-19T01:21:39.901Z,6.88
2023-02-19T01:24:08.363Z,6.15
2023-02-19T01:26:36.893Z,5.93
2023-02-19T01:29:05.258Z,5.32
2023-02-19T01:31:33.957Z,7.15
2023-02-19T01:34:05.228Z,7.53
2023-02-19T01:36:34.605Z,7.85
2023-02-19T01:39:05.705Z,6.82
2023-02-19T01:41:39.719Z,7.07
2023-02-19T01:44:12.285Z,6.22
2023-02-19T01:46:45.220Z,7.50
2023-02-19T01:49:29.289Z,5.25
2023-02-19T01:52:18.692Z,5.47
2023-02-19T01:54:49.940Z,6.72
2023-02-19T01:57:23.345Z,6.43
2023-02-19T01:59:56.214Z,7.07
2023-02-19T02:02:28.741Z,5.40
2023-02-19T02:05:00.421Z,7.70
2023-02-19T02:10:21.540Z,5.90
2023-02-19T02:12:52.300Z,6.80
2023-02-19T02:15:22.455Z,5.80
2023-02-19T02:18:06.098Z,7.68
2023-02-19T02:21:11.782Z,6.80
2023-02-19T02:24:24.074Z,6.72
2023-02-19T02:27:13.505Z,8.43
2023-02-19T02:30:24.129Z,6.50
2023-02-19T02:33:11.692Z,7.50
2023-02-19T02:35:58.768Z,6.28
2023-02-19T02:38:34.335Z,5.32
2023-02-19T02:41:03.558Z,5.80
2023-02-19T02:43:32.934Z,5.80
2023-02-19T02:46:01.139Z,5.43
2023-02-19T02:48:54.194Z,5.30
2023-02-19T02:51:36.839Z,4.68
2023-02-19T02:54:41.351Z,6.43
2023-02-19T02:57:15.270Z,6.78
2023-02-19T02:59:54.302Z,6.68
2023-02-19T03:02:28.872Z,5.75
2023-02-19T03:05:37.421Z,5.45
2023-02-19T03:08:20.863Z,5.80
2023-02-19T03:11:25.132Z,7.82
2023-02-19T03:14:22.427Z,8.60
2023-02-19T03:17:14.569Z,7.97
2023-02-19T03:19:54.397Z,8.40
2023-02-19T03:22:37.071Z,6.28
2023-02-19T03:26:03.503Z,7.63
2023-02-19T03:29:04.373Z,8.07
2023-02-19T03:31:34.005Z,6.68
2023-02-19T03:34:12.576Z,7.38
2023-02-19T03:36:48.714Z,8.18
2023-02-19T03:39:23.011Z,6.53
2023-02-19T03:42:15.285Z,8.65
2023-02-19T03:45:21.070Z,8.80
2023-02-19T03:48:02.088Z,8.35
2023-02-19T03:53:42.766Z,7.72
2023-02-19T03:57:01.403Z,8.13
2023-02-19T03:59:42.254Z,7.35
2023-02-19T04:02:29.352Z,8.00
2023-02-19T04:05:27.322Z,7.28
2023-02-19T04:08:04.681Z,8.10
2023-02-19T04:10:40.108Z,7.82
2023-02-19T04:13:43.875Z,8.15
2023-02-19T04:16:26.875Z,8.55
2023-02-19T04:19:04.197Z,7.80
2023-02-19T04:21:34.009Z,8.02
2023-02-19T04:24:11.333Z,7.30
2023-02-19T04:26:40.186Z,8.00
2023-02-19T04:29:08.291Z,7.15
2023-02-19T04:31:38.814Z,7.80
2023-02-19T04:34:06.929Z,7.50
2023-02-19T04:36:35.028Z,6.53
2023-02-19T04:39:03.843Z,6.32
2023-02-19T04:41:31.920Z,6.85
2023-02-19T04:43:59.884Z,6.93
2023-02-19T04:46:28.001Z,5.55
2023-02-19T04:48:56.759Z,6.60
2023-02-19T04:51:24.983Z,6.22
2023-02-19T04:53:53.766Z,6.93
2023-02-19T04:56:21.818Z,4.72
2023-02-19T04:58:50.034Z,6.43
2023-02-19T05:01:18.180Z,4.25
2023-02-19T05:03:46.913Z,6.75
2023-02-19T05:06:15.487Z,4.90
2023-02-19T05:08:44.125Z,6.30
2023-02-19T05:11:13.326Z,4.70
2023-02-19T05:13:41.515Z,5.45
2023-02-19T05:16:16.358Z,4.47
2023-02-19T05:18:46.767Z,6.43
2023-02-19T05:21:15.784Z,5.53
2023-02-19T05:23:44.858Z,6.90
2023-02-19T05:26:19.769Z,5.97
2023-02-19T05:28:53.470Z,5.72
2023-02-19T05:31:22.053Z,5.28
2023-02-19T05:33:52.854Z,5.68
2023-02-19T05:36:22.482Z,4.73
2023-02-19T05:38:57.914Z,5.97
2023-02-19T05:41:29.307Z,5.47
2023-02-19T05:43:58.323Z,3.92
2023-02-19T05:46:32.373Z,4.15
2023-02-19T05:49:01.477Z,4.22
2023-02-19T05:51:29.631Z,3.60
2023-02-19T05:53:58.716Z,3.88
2023-02-19T05:56:37.323Z,4.53
2023-02-19T05:59:16.615Z,5.63
2023-02-19T06:01:45.352Z,5.03
2023-02-19T06:04:14.559Z,4.63
2023-02-19T06:06:43.704Z,5.47
2023-02-19T06:09:12.668Z,4.60
2023-02-19T06:11:40.980Z,4.55
2023-02-19T06:14:09.170Z,4.88
2023-02-19T06:16:37.649Z,4.35
2023-02-19T06:19:06.430Z,4.70
2023-02-19T06:21:35.870Z,5.63
2023-02-19T06:24:09.165Z,4.95
2023-02-19T06:26:38.597Z,4.28
2023-02-19T06:29:06.564Z,4.75
2023-02-19T06:31:34.717Z,4.68
2023-02-19T06:34:05.824Z,4.68
2023-02-19T06:36:34.210Z,4.95
2023-02-19T06:39:06.055Z,3.92
2023-02-19T06:41:34.410Z,3.65
2023-02-19T06:44:02.538Z,4.03
2023-02-19T06:46:31.162Z,5.22
2023-02-19T06:48:59.652Z,4.93
2023-02-19T06:51:29.796Z,4.93
2023-02-19T06:53:59.220Z,5.20
2023-02-19T06:56:40.931Z,6.43
2023-02-19T06:59:13.285Z,6.10
2023-02-19T07:01:42.088Z,7.07
2023-02-19T07:04:10.556Z,6.82
2023-02-19T07:06:39.119Z,5.97
2023-02-19T07:09:12.211Z,6.60
2023-02-19T07:11:40.817Z,6.47
2023-02-19T07:14:16.438Z,6.25
2023-02-19T07:16:45.126Z,8.10
2023-02-19T07:19:14.939Z,7.00
2023-02-19T07:21:43.431Z,7.72
2023-02-19T07:24:11.869Z,7.70
2023-02-19T07:26:39.872Z,8.05
2023-02-19T07:29:10.146Z,8.20
2023-02-19T07:31:38.542Z,7.57
2023-02-19T07:34:08.050Z,9.07
2023-02-19T07:36:39.844Z,6.85
2023-02-19T07:41:38.265Z,7.32
2023-02-19T07:44:07.676Z,7.45
2023-02-19T07:46:37.928Z,6.13
2023-02-19T07:49:07.376Z,7.38
2023-02-19T07:51:35.806Z,6.60
2023-02-19T07:54:04.226Z,6.70
2023-02-19T07:56:32.564Z,6.65
2023-02-19T07:59:01.392Z,5.97
2023-02-19T08:01:48.233Z,7.25
2023-02-19T08:04:17.315Z,5.85
2023-02-19T08:06:45.831Z,8.25
2023-02-19T08:09:14.167Z,6.88
2023-02-19T08:12:01.718Z,7.82
2023-02-19T08:14:31.352Z,6.97
2023-02-19T08:16:59.622Z,7.63
2023-02-19T08:19:28.273Z,6.72
2023-02-19T08:21:56.473Z,7.72
2023-02-19T08:24:27.651Z,6.85
2023-02-19T08:26:56.240Z,6.47
2023-02-19T08:29:25.154Z,5.40
2023-02-19T08:31:53.933Z,7.82
2023-02-19T08:34:22.350Z,6.80
2023-02-19T08:36:51.277Z,7.70
2023-02-19T08:39:21.240Z,6.15
2023-02-19T08:41:49.851Z,7.05
2023-02-19T08:44:17.869Z,5.47
2023-02-19T08:46:46.910Z,6.97
2023-02-19T08:49:16.831Z,6.30
2023-02-19T08:51:45.053Z,8.25
2023-02-19T08:54:13.746Z,5.65
2023-02-19T08:56:42.924Z,7.50
2023-02-19T08:59:11.167Z,6.57
2023-02-19T09:01:39.294Z,6.55
2023-02-19T09:04:08.906Z,8.45
2023-02-19T09:06:39.816Z,7.97
2023-02-19T09:09:08.832Z,7.38
2023-02-19T09:11:40.696Z,7.63
2023-02-19T09:14:09.629Z,6.30
2023-02-19T09:16:38.462Z,6.35
2023-02-19T09:19:06.932Z,6.57
2023-02-19T09:21:37.953Z,5.05
2023-02-19T09:24:09.250Z,6.90
2023-02-19T09:26:38.760Z,6.45
2023-02-19T09:29:07.132Z,8.35
2023-02-19T09:31:36.039Z,6.10
2023-02-19T09:34:05.961Z,7.75
2023-02-19T09:36:35.772Z,8.10
2023-02-19T09:39:07.086Z,8.95
2023-02-19T09:41:46.585Z,7.35
2023-02-19T09:44:27.999Z,6.72
2023-02-19T09:46:56.745Z,7.28
2023-02-19T09:49:38.526Z,7.35
2023-02-19T09:52:26.892Z,5.85
2023-02-19T09:54:59.663Z,7.15
2023-02-19T09:57:30.680Z,8.27
2023-02-19T10:00:31.815Z,8.48
2023-02-19T10:03:20.883Z,6.20
2023-02-19T10:05:49.751Z,9.68
2023-02-19T10:08:22.646Z,7.10
2023-02-19T10:10:52.391Z,6.63
2023-02-19T10:13:29.732Z,5.30
2023-02-19T10:16:02.844Z,5.85
2023-02-19T10:18:41.918Z,6.90
2023-02-19T10:21:28.941Z,6.22
2023-02-19T10:24:03.283Z,6.13
2023-02-19T10:26:37.830Z,5.00
2023-02-19T10:29:07.188Z,6.30
2023-02-19T10:31:35.874Z,5.40
2023-02-19T10:34:05.975Z,6.57
2023-02-19T10:36:41.469Z,6.20
2023-02-19T10:39:40.285Z,6.53
2023-02-19T10:42:17.551Z,6.13
2023-02-19T10:45:03.124Z,7.38
2023-02-19T10:47:33.322Z,6.25
2023-02-19T10:50:04.487Z,5.78
2023-02-19T10:52:37.118Z,5.13
2023-02-19T10:55:38.582Z,8.48
2023-02-19T10:58:29.526Z,5.43
2023-02-19T11:01:22.686Z,5.13
2023-02-19T11:03:53.951Z,8.27
2023-02-19T11:06:27.131Z,4.68
2023-02-19T11:09:00.125Z,6.45
2023-02-19T11:11:40.342Z,4.97
2023-02-19T11:14:21.978Z,5.18
2023-02-19T11:17:04.953Z,8.30
2023-02-19T11:19:49.355Z,7.55
2023-02-19T11:22:36.418Z,8.25
2023-02-19T11:25:10.912Z,6.97
2023-02-19T11:28:02.796Z,5.25
2023-02-19T11:30:34.474Z,7.15
2023-02-19T11:33:22.662Z,6.25
2023-02-19T11:36:23.902Z,8.00
2023-02-19T11:38:55.685Z,8.77
2023-02-19T11:44:30.711Z,6.32
2023-02-19T11:47:30.217Z,6.55
2023-02-19T11:50:47.561Z,4.68
2023-02-19T11:53:32.436Z,5.88
2023-02-19T11:56:21.290Z,5.93
2023-02-19T11:59:22.801Z,5.63
2023-02-19T12:02:27.970Z,6.50
2023-02-19T12:05:50.037Z,5.47
2023-02-19T12:08:58.378Z,4.82
2023-02-19T12:12:00.231Z,4.22
2023-02-19T12:14:37.748Z,4.00
2023-02-19T12:17:16.540Z,4.03
2023-02-19T12:20:02.797Z,4.43
2023-02-19T12:22:44.128Z,3.35
2023-02-19T12:25:48.794Z,5.50
2023-02-19T12:29:03.714Z,4.40
2023-02-19T12:31:43.491Z,3.17
2023-02-19T12:34:48.915Z,4.25
2023-02-19T12:37:43.637Z,4.00
2023-02-19T12:40:40.395Z,3.83
2023-02-19T12:43:14.261Z,3.78
2023-02-19T12:46:05.187Z,3.95
2023-02-19T12:48:49.016Z,3.85
2023-02-19T12:51:45.963Z,4.07
2023-02-19T12:54:34.707Z,3.70
2023-02-19T12:57:14.914Z,4.18
2023-02-19T12:59:56.480Z,4.97
2023-02-19T13:02:35.788Z,3.45
2023-02-19T13:05:35.890Z,4.22
2023-02-19T13:08:14.574Z,3.75
2023-02-19T13:10:55.336Z,5.25
2023-02-19T13:13:46.678Z,4.32
2023-02-19T13:16:24.531Z,4.85
2023-02-19T13:18:59.724Z,5.38
2023-02-19T13:21:55.892Z,4.30
2023-02-19T13:24:35.859Z,4.28
2023-02-19T13:27:28.791Z,3.83
2023-02-19T13:30:42.472Z,4.20
2023-02-19T13:33:59.607Z,4.10
2023-02-19T13:36:30.377Z,4.05
2023-02-19T13:39:00.383Z,4.60
2023-02-19T13:41:34.349Z,4.40
2023-02-19T13:44:09.116Z,3.72
2023-02-19T13:46:44.474Z,4.82
2023-02-19T13:49:33.946Z,3.72
2023-02-19T13:52:30.071Z,4.10
2023-02-19T13:55:46.905Z,3.90
2023-02-19T13:58:33.600Z,4.03
2023-02-19T14:01:02.779Z,4.28
2023-02-19T14:03:54.682Z,3.97
2023-02-19T14:06:23.659Z,3.92
2023-02-19T14:09:00.690Z,4.53
2023-02-19T14:11:44.519Z,5.47
2023-02-19T14:14:45.501Z,4.93
2023-02-19T14:17:48.201Z,4.00
2023-02-19T14:20:16.948Z,4.38
2023-02-19T14:22:49.047Z,6.22
2023-02-19T14:25:29.442Z,4.13
2023-02-19T14:28:30.313Z,5.30
2023-02-19T14:31:11.124Z,5.60
2023-02-19T14:33:52.992Z,5.70
2023-02-19T14:36:45.284Z,5.00
2023-02-19T14:39:19.574Z,6.68
2023-02-19T14:41:58.023Z,3.85
2023-02-19T14:44:36.246Z,5.55
2023-02-19T14:47:15.676Z,4.75
2023-02-19T14:49:52.002Z,6.80
2023-02-19T14:52:44.050Z,3.95
2023-02-19T14:55:32.901Z,6.18
2023-02-19T14:58:26.764Z,6.65
2023-02-19T15:00:55.693Z,6.13
2023-02-19T15:03:35.625Z,5.57
2023-02-19T15:06:19.259Z,5.30
2023-02-19T15:08:53.717Z,5.07
2023-02-19T15:11:28.167Z,5.40
2023-02-19T15:14:05.170Z,6.72
2023-02-19T15:16:37.111Z,4.65
2023-02-19T15:21:50.108Z,5.30
2023-02-19T15:24:20.933Z,7.43
2023-02-19T15:26:54.505Z,6.23
2023-02-19T15:29:28.924Z,4.68
2023-02-19T15:32:00.925Z,6.05
2023-02-19T15:34:32.607Z,6.00
2023-02-19T15:37:08.590Z,6.22
2023-02-19T15:39:47.076Z,5.10
2023-02-19T15:42:40.523Z,4.97
2023-02-19T15:45:37.978Z,4.30
2023-02-19T15:48:22.543Z,7.40
2023-02-19T15:51:05.431Z,7.90
2023-02-19T15:53:40.934Z,6.38
2023-02-19T15:56:33.642Z,6.55
2023-02-19T15:59:12.374Z,6.63
2023-02-19T16:01:41.612Z,5.65
2023-02-19T16:04:19.610Z,6.07
2023-02-19T16:06:59.039Z,7.43
2023-02-19T16:09:38.379Z,5.35
2023-02-19T16:12:25.761Z,6.40
2023-02-19T16:14:54.987Z,7.93
2023-02-19T16:17:31.576Z,7.85
2023-02-19T16:20:04.470Z,8.18
2023-02-19T16:22:43.504Z,9.10
2023-02-19T16:25:32.300Z,8.32
2023-02-19T16:28:10.406Z,8.73
2023-02-19T16:30:42.180Z,7.15
2023-02-19T16:33:37.732Z,10.05
2023-02-19T16:36:41.811Z,9.40
2023-02-19T16:39:12.669Z,8.60
2023-02-19T16:42:02.454Z,7.65
2023-02-19T16:44:36.768Z,8.45
2023-02-19T16:47:24.230Z,8.15
2023-02-19T16:49:53.901Z,8.57
2023-02-19T16:52:22.959Z,6.60
2023-02-19T16:54:51.982Z,7.85
2023-02-19T16:57:21.675Z,10.15
2023-02-19T16:59:50.546Z,11.00
2023-02-19T17:02:24.832Z,9.43
2023-02-19T17:04:55.929Z,14.02
2023-02-19T17:09:55.681Z,12.52
2023-02-19T17:12:24.634Z,11.43
2023-02-19T17:14:53.458Z,13.35
2023-02-19T17:17:22.314Z,9.90
2023-02-19T17:19:54.096Z,13.50
2023-02-19T17:24:51.423Z,11.20
2023-02-19T17:27:20.359Z,7.28
2023-02-19T17:29:48.922Z,11.77
2023-02-19T17:32:17.226Z,7.28
2023-02-19T17:34:49.931Z,8.88
2023-02-19T17:37:18.537Z,7.50
2023-02-19T17:39:49.365Z,8.32
2023-02-19T17:42:19.163Z,7.65
2023-02-19T17:44:48.022Z,9.45
2023-02-19T17:47:19.756Z,6.65
2023-02-19T17:49:47.986Z,8.25
2023-02-19T17:52:22.279Z,5.97
2023-02-19T17:54:50.920Z,9.63
2023-02-19T17:57:21.549Z,8.25
2023-02-19T17:59:49.601Z,10.05
2023-02-19T18:02:23.162Z,9.73
2023-02-19T18:04:52.364Z,8.48
2023-02-19T18:07:21.070Z,9.82
2023-02-19T18:09:50.206Z,12.30
2023-02-19T18:12:19.172Z,8.98
2023-02-19T18:14:47.971Z,8.55
2023-02-19T18:17:16.833Z,10.00
2023-02-19T18:19:46.140Z,10.13
2023-02-19T18:22:14.740Z,7.68
2023-02-19T18:25:01.303Z,10.65
2023-02-19T18:27:29.630Z,7.22
2023-02-19T18:29:58.017Z,7.53
2023-02-19T18:32:26.848Z,6.90
2023-02-19T18:34:58.611Z,6.53
2023-02-19T18:37:30.396Z,5.93
2023-02-19T18:40:00.366Z,6.43
2023-02-19T18:42:28.935Z,6.25
2023-02-19T18:44:57.741Z,6.60
2023-02-19T18:47:26.869Z,6.18
2023-02-19T18:49:58.356Z,8.30
2023-02-19T18:52:28.290Z,6.20
2023-02-19T18:54:57.827Z,7.47
2023-02-19T18:57:26.796Z,6.97
2023-02-19T18:59:56.091Z,7.93
2023-02-19T19:02:25.170Z,6.25
2023-02-19T19:04:54.671Z,10.60
2023-02-19T19:07:24.052Z,11.98
2023-02-19T19:10:00.107Z,10.10
2023-02-19T19:12:28.850Z,9.60
2023-02-19T19:14:57.447Z,9.93
2023-02-19T19:17:26.156Z,8.95
2023-02-19T19:19:56.785Z,9.15
2023-02-19T19:22:26.935Z,8.50
2023-02-19T19:24:55.121Z,8.23
2023-02-19T19:27:23.647Z,7.00
2023-02-19T19:29:52.106Z,8.02
2023-02-19T19:32:20.831Z,6.68
2023-02-19T19:34:49.628Z,9.40
2023-02-19T19:37:18.197Z,9.05
2023-02-19T19:39:46.310Z,8.90
2023-02-19T19:42:15.824Z,6.25
2023-02-19T19:44:45.771Z,7.10
2023-02-19T19:47:15.295Z,8.95
2023-02-19T19:49:47.979Z,9.55
2023-02-19T19:52:16.869Z,8.10
2023-02-19T19:54:45.992Z,9.55
2023-02-19T19:57:16.524Z,8.07
2023-02-19T19:59:48.399Z,8.77
2023-02-19T20:02:17.809Z,8.23
2023-02-19T20:04:49.285Z,8.35
2023-02-19T20:07:18.327Z,6.88
2023-02-19T20:09:50.874Z,7.35
2023-02-19T20:12:19.519Z,6.30
2023-02-19T20:14:48.100Z,8.23
2023-02-19T20:17:18.326Z,5.72
2023-02-19T20:19:47.214Z,7.97
2023-02-19T20:22:15.656Z,6.07
2023-02-19T20:24:44.541Z,8.05
2023-02-19T20:27:13.175Z,6.45
2023-02-19T20:29:45.012Z,8.60
2023-02-19T20:32:15.510Z,7.72
2023-02-19T20:34:43.873Z,8.68
2023-02-19T20:37:12.736Z,7.25
2023-02-19T20:39:41.676Z,7.55
2023-02-19T20:42:09.998Z,8.10
2023-02-19T20:44:39.082Z,6.85
2023-02-19T20:47:07.628Z,7.78
2023-02-19T20:49:46.095Z,7.97
2023-02-19T20:52:17.469Z,7.90
2023-02-19T20:54:50.774Z,6.75
2023-02-19T20:57:19.738Z,6.60
2023-02-19T20:59:48.132Z,8.73
2023-02-19T21:02:28.296Z,6.60
2023-02-19T21:04:57.736Z,10.23
2023-02-19T21:07:32.798Z,9.02
2023-02-19T21:10:03.433Z,7.50
2023-02-19T21:12:33.060Z,7.65
2023-02-19T21:15:02.635Z,7.90
2023-02-19T21:17:34.235Z,7.22
2023-02-19T21:20:02.785Z,6.60
2023-02-19T21:22:31.746Z,6.68
2023-02-19T21:25:00.619Z,7.50
2023-02-19T21:27:28.853Z,8.38
2023-02-19T21:29:58.750Z,9.18
2023-02-19T21:32:27.806Z,7.30
2023-02-19T21:34:56.340Z,7.20
2023-02-19T21:37:25.112Z,7.88
2023-02-19T21:39:57.159Z,11.25
2023-02-19T21:42:30.973Z,8.13
2023-02-19T21:44:59.284Z,7.68
2023-02-19T21:47:29.243Z,7.78
2023-02-19T21:49:57.618Z,7.32
2023-02-19T21:52:27.067Z,6.78
2023-02-19T21:54:55.703Z,7.90
2023-02-19T21:57:26.323Z,7.35
2023-02-19T21:59:54.619Z,8.70
2023-02-19T22:02:22.909Z,6.78
2023-02-19T22:04:55.986Z,7.43
2023-02-19T22:07:25.429Z,7.75
2023-02-19T22:09:56.856Z,7.80
2023-02-19T22:12:25.280Z,6.35
2023-02-19T22:14:53.923Z,8.13
2023-02-19T22:17:22.742Z,6.30
2023-02-19T22:22:42.713Z,7.07
2023-02-19T22:25:52.964Z,8.23
2023-02-19T22:28:22.330Z,5.60
2023-02-19T22:30:50.805Z,7.10
2023-02-19T22:33:19.285Z,5.90
2023-02-19T22:35:47.893Z,7.85
2023-02-19T22:38:16.001Z,5.72
2023-02-19T22:40:44.337Z,6.80
2023-02-19T22:43:17.095Z,6.18
2023-02-19T22:45:45.488Z,7.03
2023-02-19T22:48:19.258Z,6.25
2023-02-19T22:50:53.489Z,7.20
2023-02-19T22:53:21.750Z,5.40
2023-02-19T22:55:49.940Z,6.65
2023-02-19T22:58:18.700Z,5.78
2023-02-19T23:00:47.221Z,7.30
2023-02-19T23:03:15.523Z,6.03
2023-02-19T23:05:44.138Z,6.05
2023-02-19T23:08:12.444Z,6.32
2023-02-19T23:10:41.136Z,5.78
2023-02-19T23:13:09.725Z,5.95
2023-02-19T23:15:37.948Z,4.88
2023-02-19T23:18:08.510Z,5.65
2023-02-19T23:20:38.900Z,5.85
2023-02-19T23:23:06.938Z,5.75
2023-02-19T23:25:34.943Z,5.43
2023-02-19T23:28:03.319Z,6.22
2023-02-19T23:30:31.831Z,4.75
2023-02-19T23:32:59.781Z,5.65
2023-02-19T23:35:28.201Z,5.68
2023-02-19T23:37:56.653Z,6.43
2023-02-19T23:40:24.827Z,5.05
2023-02-19T23:42:53.396Z,5.60
2023-02-19T23:45:21.595Z,4.40
2023-02-19T23:47:49.661Z,5.45
2023-02-19T23:50:18.257Z,4.95
2023-02-19T23:52:46.306Z,6.82
2023-02-19T23:55:14.434Z,4.85
2023-02-19T23:57:44.282Z,6.57
